KMCF/MCF METAR and TAF weather

Enter ICAO airport designator
Station Type Date Time Source
KMCF METAR 2022/01/27 23:56 UTC NOAA

KMCF 272356Z AUTO 04011KT 10SM OVC018 17/14 A3006 RMK AO2 SLP182 T01720139 10224 20172 52010 FZRANO VISNO RWY23 $


Station Type Date Time Source
KMCF Decoded METAR 2022/01/27 23:56 UTC NOAA

Macdill Air Force Base, Fl., FL, United States (KMCF) 27-51N 082-30W 4M
Jan 27, 2022 - 06:56 PM EST / 2022.01.27 2356 UTC
Wind: from the NE (040 degrees) at 13 MPH (11 KT):0
Visibility: 10 mile(s):0
Sky conditions: overcast
Temperature: 63.0 F (17.2 C)
Dew Point: 57.0 F (13.9 C)
Relative Humidity: 80%
Pressure (altimeter): 30.06 in. Hg (1017 hPa)
Pressure tendency: 0.03 inches (1.0 hPa) higher than three hours ago
ob: KMCF 272356Z AUTO 04011KT 10SM OVC018 17/14 A3006 RMK AO2 SLP182 T01720139 10224 20172 52010 FZRANO VISNO RWY23
cycle: 0

Station Type Date Time Source
KMCF TAF 2022/01/27 17:06 UTC NOAA

TAF TAF KMCF 271700Z 2717/2823 04009KT 9999 BKN015 OVC034 QNH3004INS
TEMPO 2717/2802 SCT015 OVC035
BECMG 2801/2802 04006KT 9999 BKN020 OVC030 QNH3008INS
BECMG 2804/2805 03009KT 9999 BKN006 OVC010 QNH2995INS
BECMG 2821/2822 30009KT 9999 SCT006 BKN015 QNH2994INS TX20/2720Z TN10/2810Z

Example: see airport list